Aérodrome :







RETROUVEZ-NOUS SUR...

 
LOGIN :

S'inscrire | Disclaimer

   EN    FR    IT 

 









Légende :    VFR   VFR Marginal   IFR   IFR Intensif   IFR Très Intensif
Visi : 
Plafond : 
>= 8 km
>= 3000ft
5 à 8 km
1000 à 3000 ft
1500m à 5 km
500 à 1000 ft
800 à 1500m
200 à 500 ft
< 800m
< 200 ft
Symboles :   Orages  Brouillard  Fortes neiges  Fortes précipitations  Vent > 20 kt






- Altitude de l'aérodrome : 1166 ft


KMPV - Edward F Knapp State

DERNIER METAR :
  • 261651Z AUTO 00000KT 6SM -SN BR OVC011 01/M01 A3002 RMK AO2 SNB46 SLP181 P0000 T00111011

METARs EXPIRÉS :
  • 261551Z AUTO 00000KT 10SM BKN013 OVC019 01/M01 A3003 RMK AO2 SLP184 T00061011
  • 261505Z AUTO 31003KT 10SM OVC014 01/M01 A3002 RMK AO2 T00061011
  • 261451Z AUTO 00000KT 10SM BKN015 OVC021 01/M01 A3002 RMK AO2 SLP180 60001 T00061011 50002

TAF KMPV
Valide du 26 à 15h jusqu'au 27 à 12h UTC


261437Z 2615/2712 00000KT P6SM VCSH OVC015
FM261600 00000KT 5SM BR VCSH OVC018
FM270100 15008KT P6SM VCSH BKN024
FM270700 13010KT 1 1/2SM -SNRA BR OVC019 WS020/14045KT



MET'MAP, la Météo Aéronautique d'un coup d'oeil ! - Copyright ORBIFLY Décembre 2007 - Disclaimer

ORBIFLY MET'MAP TEAM :

Programmation & Développement : Alexandra Zaïnal
Sur une idée originale de : Baudouin d'Aumeries
Assistance à la programmation : Marc-Olivier Méhu
Soutien technique & logistique : Manuel Goepfert

Contact : metmap@orbifly.com




SOURCES & CREDITS :

   NOAA